createdAt,value
2017-10-28T09:48:28.854Z,2.10
2017-10-28T09:50:56.523Z,1.93
2017-10-28T09:53:24.124Z,1.93
2017-10-28T09:55:51.726Z,1.50
2017-10-28T09:58:20.066Z,1.80
2017-10-28T10:00:47.654Z,2.00
2017-10-28T10:03:16.024Z,1.77
2017-10-28T10:05:44.390Z,2.80
2017-10-28T10:08:12.037Z,2.40
2017-10-28T10:10:39.627Z,1.63
2017-10-28T10:13:07.959Z,1.90
2017-10-28T10:15:35.566Z,2.00
2017-10-28T10:18:03.955Z,1.50
2017-10-28T10:20:31.548Z,1.77
2017-10-28T10:22:59.554Z,2.17
2017-10-28T10:25:27.136Z,2.90
2017-10-28T10:27:55.477Z,1.97
2017-10-28T10:30:23.095Z,1.33
2017-10-28T10:32:50.768Z,1.90
2017-10-28T10:35:18.407Z,1.80
2017-10-28T10:37:46.738Z,1.70
2017-10-28T10:40:14.352Z,1.43
2017-10-28T10:42:42.725Z,1.63
2017-10-28T10:45:11.241Z,1.70
2017-10-28T10:47:38.796Z,1.80
2017-10-28T10:50:06.483Z,1.90
2017-10-28T10:52:34.062Z,1.63
2017-10-28T10:55:01.714Z,1.70
2017-10-28T10:57:29.321Z,2.00
2017-10-28T10:59:56.881Z,1.80
2017-10-28T11:02:24.448Z,2.00
2017-10-28T11:04:52.063Z,2.30
2017-10-28T11:07:19.631Z,1.73
2017-10-28T11:09:47.308Z,1.50
2017-10-28T11:12:15.680Z,2.30
2017-10-28T11:14:44.000Z,1.93
2017-10-28T11:17:11.599Z,1.90
2017-10-28T11:19:39.212Z,1.50
2017-10-28T11:22:06.769Z,2.33
2017-10-28T11:24:34.373Z,1.97
2017-10-28T11:27:01.953Z,2.60
2017-10-28T11:29:29.568Z,2.37
2017-10-28T11:31:57.133Z,1.90
2017-10-28T11:34:24.733Z,2.90
2017-10-28T11:36:53.068Z,2.00
2017-10-28T11:39:20.747Z,3.03
2017-10-28T11:41:48.315Z,2.40
2017-10-28T11:44:15.890Z,2.40
2017-10-28T11:46:43.540Z,3.17
2017-10-28T11:49:11.108Z,2.80
2017-10-28T11:51:38.684Z,2.90
2017-10-28T11:54:07.057Z,3.10
2017-10-28T11:56:34.665Z,3.00
2017-10-28T11:59:02.227Z,2.83
2017-10-28T12:01:29.797Z,2.97
2017-10-28T12:03:57.517Z,3.27
2017-10-28T12:06:25.148Z,3.00
2017-10-28T12:08:52.826Z,3.03
2017-10-28T12:11:21.159Z,3.63
2017-10-28T12:13:48.802Z,3.57
2017-10-28T12:16:16.396Z,3.07
2017-10-28T12:18:44.062Z,3.10
2017-10-28T12:21:11.621Z,3.17
2017-10-28T12:23:39.270Z,3.60
2017-10-28T12:26:07.599Z,3.30
2017-10-28T12:28:35.926Z,4.03
2017-10-28T12:31:03.540Z,2.93
2017-10-28T12:33:32.617Z,3.23
2017-10-28T12:36:00.964Z,3.30
2017-10-28T12:38:28.578Z,3.10
2017-10-28T12:40:56.920Z,4.00
2017-10-28T12:43:25.912Z,3.40
2017-10-28T12:45:53.527Z,2.90
2017-10-28T12:48:21.088Z,3.50
2017-10-28T12:50:48.652Z,3.13
2017-10-28T12:53:16.289Z,3.40
2017-10-28T12:55:43.904Z,2.70
2017-10-28T12:58:12.127Z,2.40
2017-10-28T13:00:41.606Z,3.60
2017-10-28T13:03:10.506Z,2.70
2017-10-28T13:05:38.945Z,3.13
2017-10-28T13:08:06.536Z,2.77
2017-10-28T13:10:34.216Z,2.80
2017-10-28T13:13:02.556Z,3.60
2017-10-28T13:15:30.159Z,3.10
2017-10-28T13:17:58.488Z,2.87
2017-10-28T13:20:26.101Z,3.00
2017-10-28T13:22:53.684Z,2.70
2017-10-28T13:25:21.285Z,2.50
2017-10-28T13:27:48.854Z,2.87
2017-10-28T13:30:17.480Z,2.30
2017-10-28T13:32:45.042Z,2.30
2017-10-28T13:35:12.656Z,3.00
2017-10-28T13:37:40.221Z,2.77
2017-10-28T13:40:07.792Z,2.93
2017-10-28T13:42:36.176Z,3.43
2017-10-28T13:45:04.653Z,3.10
2017-10-28T13:47:33.029Z,2.93
2017-10-28T13:50:01.356Z,2.90
2017-10-28T13:52:29.959Z,2.53
2017-10-28T13:54:57.602Z,3.10
2017-10-28T13:57:25.210Z,3.00
2017-10-28T13:59:53.601Z,3.03
2017-10-28T14:02:22.032Z,3.07
2017-10-28T14:04:49.665Z,3.00
2017-10-28T14:07:17.324Z,3.83
2017-10-28T14:09:44.930Z,3.90
2017-10-28T14:12:12.593Z,3.70
2017-10-28T14:14:40.232Z,3.90
2017-10-28T14:17:07.829Z,3.60
2017-10-28T14:19:36.191Z,4.70
2017-10-28T14:22:04.171Z,3.63
2017-10-28T14:24:31.738Z,3.37
2017-10-28T14:26:59.304Z,3.43
2017-10-28T14:29:27.680Z,3.33
2017-10-28T14:31:56.075Z,3.27
2017-10-28T14:34:23.687Z,3.70
2017-10-28T14:36:51.260Z,2.80
2017-10-28T14:39:18.928Z,3.63
2017-10-28T14:41:46.759Z,2.90
2017-10-28T14:44:14.359Z,3.13
2017-10-28T14:46:42.144Z,3.07
2017-10-28T14:49:09.758Z,3.47
2017-10-28T14:51:37.415Z,2.83
2017-10-28T14:54:05.040Z,3.10
2017-10-28T14:56:32.689Z,3.80
2017-10-28T14:59:01.113Z,3.00
2017-10-28T15:01:29.682Z,4.63
2017-10-28T15:03:57.317Z,2.80
2017-10-28T15:06:24.976Z,3.10
2017-10-28T15:08:55.124Z,3.10
2017-10-28T15:11:22.765Z,2.80
2017-10-28T15:13:50.676Z,2.83
2017-10-28T15:16:18.982Z,3.03
2017-10-28T15:18:46.789Z,2.90
2017-10-28T15:21:14.404Z,2.90
2017-10-28T15:23:42.057Z,2.83
2017-10-28T15:26:09.645Z,3.50
2017-10-28T15:28:38.050Z,3.33
2017-10-28T15:31:05.752Z,3.20
2017-10-28T15:33:34.958Z,2.73
2017-10-28T15:36:03.329Z,2.77
2017-10-28T15:38:30.932Z,2.80
2017-10-28T15:40:59.264Z,2.40
2017-10-28T15:43:26.908Z,3.50
2017-10-28T15:45:54.496Z,2.20
2017-10-28T15:48:22.149Z,3.27
2017-10-28T15:50:49.740Z,3.00
2017-10-28T15:53:18.149Z,2.47
2017-10-28T15:55:45.736Z,3.20
2017-10-28T15:58:13.386Z,2.70
2017-10-28T16:00:41.054Z,2.87
2017-10-28T16:03:08.882Z,2.80
2017-10-28T16:05:37.323Z,2.87
2017-10-28T16:08:05.029Z,3.77
2017-10-28T16:10:32.846Z,2.90
2017-10-28T16:13:00.580Z,3.70
2017-10-28T16:15:28.340Z,3.00
2017-10-28T16:17:56.041Z,2.57
2017-10-28T16:20:23.972Z,2.53
2017-10-28T16:22:51.657Z,2.83
2017-10-28T16:25:19.460Z,2.40
2017-10-28T16:27:48.142Z,2.47
2017-10-28T16:30:15.961Z,2.57
2017-10-28T16:32:43.831Z,3.20
2017-10-28T16:35:11.601Z,2.20
2017-10-28T16:37:39.306Z,2.63
2017-10-28T16:40:06.978Z,2.60
2017-10-28T16:42:35.513Z,2.90
2017-10-28T16:45:03.281Z,4.90
2017-10-28T16:47:30.935Z,3.53
2017-10-28T16:49:58.675Z,4.57
2017-10-28T16:52:26.447Z,5.90
2017-10-28T16:54:54.231Z,4.10
2017-10-28T16:57:21.822Z,3.10
2017-10-28T16:59:49.460Z,3.53
2017-10-28T17:02:17.054Z,2.57
2017-10-28T17:04:45.438Z,2.20
2017-10-28T17:07:13.783Z,2.83
2017-10-28T17:09:41.386Z,2.90
2017-10-28T17:12:09.792Z,2.30
2017-10-28T17:14:37.465Z,2.67
2017-10-28T17:17:05.054Z,3.00
2017-10-28T17:19:32.702Z,2.83
2017-10-28T17:22:00.350Z,2.40
2017-10-28T17:24:27.934Z,2.23
2017-10-28T17:26:55.561Z,2.63
2017-10-28T17:29:23.121Z,2.63
2017-10-28T17:31:50.808Z,2.70
2017-10-28T17:34:18.396Z,3.10
2017-10-28T17:36:46.230Z,2.50
2017-10-28T17:39:14.099Z,2.80
2017-10-28T17:41:42.146Z,3.33
2017-10-28T17:44:09.950Z,2.70
2017-10-28T17:46:38.455Z,2.37
2017-10-28T17:49:06.928Z,2.87
2017-10-28T17:51:35.524Z,2.53
2017-10-28T17:54:03.902Z,2.10
2017-10-28T17:56:32.263Z,1.97
2017-10-28T17:58:59.853Z,1.90
2017-10-28T18:01:27.466Z,2.43
2017-10-28T18:03:55.046Z,2.50
2017-10-28T18:06:22.639Z,2.30
2017-10-28T18:08:50.212Z,1.80
2017-10-28T18:11:17.814Z,2.23
2017-10-28T18:13:45.416Z,2.27
2017-10-28T18:16:13.027Z,2.30
2017-10-28T18:18:40.597Z,2.03
2017-10-28T18:21:08.209Z,2.10
2017-10-28T18:23:35.788Z,2.17
2017-10-28T18:26:03.378Z,2.70
2017-10-28T18:28:30.954Z,2.43
2017-10-28T18:30:59.097Z,2.30
2017-10-28T18:33:26.673Z,2.70
2017-10-28T18:35:54.268Z,2.20
2017-10-28T18:38:22.628Z,2.13
2017-10-28T18:40:50.987Z,2.27
2017-10-28T18:43:18.685Z,2.50
2017-10-28T18:45:47.043Z,2.57
2017-10-28T18:48:14.653Z,2.23
2017-10-28T18:50:42.223Z,2.27
2017-10-28T18:53:09.856Z,3.17
2017-10-28T18:55:37.457Z,2.90
2017-10-28T18:58:05.058Z,2.80
2017-10-28T19:00:33.412Z,2.77
2017-10-28T19:03:01.026Z,3.67
2017-10-28T19:05:28.599Z,2.93
2017-10-28T19:10:30.080Z,3.70
2017-10-28T19:12:57.679Z,2.90
2017-10-28T19:15:26.024Z,2.43
2017-10-28T19:17:53.616Z,2.10
2017-10-28T19:20:21.947Z,2.77
2017-10-28T19:22:49.537Z,2.90
2017-10-28T19:25:17.177Z,2.90
2017-10-28T19:27:44.790Z,2.70
2017-10-28T19:30:13.115Z,3.20
2017-10-28T19:32:40.724Z,3.20
2017-10-28T19:35:09.051Z,3.50
2017-10-28T19:37:36.858Z,3.40
2017-10-28T19:40:05.239Z,2.90
2017-10-28T19:42:33.636Z,3.93
2017-10-28T19:45:01.214Z,3.43
2017-10-28T19:47:28.922Z,3.37
2017-10-28T19:49:57.316Z,3.13
2017-10-28T19:52:25.699Z,3.53
2017-10-28T19:54:54.061Z,3.63
2017-10-28T19:57:21.641Z,4.23
2017-10-28T19:59:50.007Z,3.20
2017-10-28T20:02:17.665Z,3.23
2017-10-28T20:04:45.292Z,3.90
2017-10-28T20:07:12.976Z,3.80
2017-10-28T20:09:41.349Z,3.97
2017-10-28T20:12:08.932Z,3.50
2017-10-28T20:14:37.307Z,3.80
2017-10-28T20:17:05.649Z,5.27
2017-10-28T20:19:33.248Z,3.30
2017-10-28T20:22:00.830Z,3.70
2017-10-28T20:24:28.450Z,3.50
2017-10-28T20:26:56.028Z,4.10
2017-10-28T20:29:23.615Z,3.63
2017-10-28T20:31:51.247Z,4.33
2017-10-28T20:34:18.872Z,3.57
2017-10-28T20:36:46.451Z,3.70
2017-10-28T20:39:14.066Z,3.87
2017-10-28T20:41:41.634Z,3.50
2017-10-28T20:44:09.361Z,3.00
2017-10-28T20:46:37.711Z,3.27
2017-10-28T20:49:05.298Z,3.30
2017-10-28T20:51:33.631Z,3.30
2017-10-28T20:54:01.285Z,3.07
2017-10-28T20:56:28.850Z,3.73
2017-10-28T20:58:56.476Z,3.20
2017-10-28T21:01:24.816Z,3.03
2017-10-28T21:03:52.482Z,2.73
2017-10-28T21:06:20.121Z,2.47
2017-10-28T21:08:47.693Z,2.70
2017-10-28T21:11:15.304Z,2.43
2017-10-28T21:13:42.924Z,3.17
2017-10-28T21:16:10.542Z,2.00
2017-10-28T21:18:38.121Z,2.77
2017-10-28T21:21:05.734Z,2.60
2017-10-28T21:23:34.090Z,2.50
2017-10-28T21:26:01.818Z,2.80
2017-10-28T21:28:29.395Z,2.90
2017-10-28T21:30:56.996Z,2.97
2017-10-28T21:33:25.365Z,2.33
2017-10-28T21:35:53.741Z,2.03
2017-10-28T21:38:21.331Z,2.60
2017-10-28T21:40:48.942Z,2.57
2017-10-28T21:43:16.542Z,2.57
2017-10-28T21:45:44.176Z,2.83
2017-10-28T21:48:11.770Z,2.60
2017-10-28T21:50:39.377Z,2.80
2017-10-28T21:53:06.973Z,2.70
2017-10-28T21:55:35.399Z,2.40
2017-10-28T21:58:03.019Z,2.10
2017-10-28T22:00:31.403Z,2.20
2017-10-28T22:02:58.988Z,2.17
2017-10-28T22:05:26.611Z,2.07
2017-10-28T22:07:54.968Z,1.80
2017-10-28T22:10:22.576Z,2.00
2017-10-28T22:12:50.246Z,1.67
2017-10-28T22:15:17.824Z,1.73
2017-10-28T22:17:45.428Z,1.80
2017-10-28T22:20:13.780Z,1.50
2017-10-28T22:22:41.391Z,1.90
2017-10-28T22:25:08.969Z,1.80
2017-10-28T22:27:36.569Z,1.50
2017-10-28T22:30:04.160Z,1.60
2017-10-28T22:32:32.533Z,1.77
2017-10-28T22:35:00.888Z,1.60
2017-10-28T22:37:28.499Z,1.50
2017-10-28T22:39:56.083Z,1.80
2017-10-28T22:42:23.692Z,1.43
2017-10-28T22:44:52.044Z,1.60
2017-10-28T22:47:19.656Z,1.20
2017-10-28T22:49:47.249Z,1.50
2017-10-28T22:52:14.877Z,1.63
2017-10-28T22:54:42.479Z,1.37
2017-10-28T22:57:10.862Z,1.67
2017-10-28T22:59:38.451Z,1.43
2017-10-28T23:02:06.852Z,1.50
2017-10-28T23:04:34.492Z,1.17
2017-10-28T23:07:02.854Z,1.60
2017-10-28T23:09:30.460Z,1.60
2017-10-28T23:11:58.049Z,1.40
2017-10-28T23:14:25.661Z,1.20
2017-10-28T23:16:54.018Z,1.63
2017-10-28T23:19:22.405Z,1.27
2017-10-28T23:21:50.766Z,1.57
2017-10-28T23:24:18.379Z,1.30
2017-10-28T23:26:45.962Z,1.30
2017-10-28T23:29:13.580Z,1.30
2017-10-28T23:31:41.937Z,1.50
2017-10-28T23:34:09.554Z,1.30
2017-10-28T23:36:37.141Z,1.20
2017-10-28T23:39:04.768Z,1.73
2017-10-28T23:41:32.474Z,1.53
2017-10-28T23:44:00.113Z,1.20
2017-10-28T23:46:27.710Z,1.50
2017-10-28T23:48:56.101Z,1.40
2017-10-28T23:51:24.447Z,1.00
2017-10-28T23:53:52.040Z,1.20
2017-10-28T23:56:20.419Z,1.13
2017-10-28T23:58:48.768Z,1.03
